createdAt,value
2018-05-19T00:00:01.768Z,65.80
2018-05-19T00:05:04.463Z,65.60
2018-05-19T00:10:07.576Z,66.00
2018-05-19T00:15:10.841Z,65.60
2018-05-19T00:20:13.451Z,65.20
2018-05-19T00:25:16.679Z,63.40
2018-05-19T00:30:19.823Z,62.10
2018-05-19T00:35:22.387Z,60.70
2018-05-19T00:40:25.533Z,61.50
2018-05-19T00:45:28.389Z,62.60
2018-05-19T00:50:32.199Z,62.30
2018-05-19T00:55:36.989Z,62.20
2018-05-19T01:00:40.341Z,62.10
2018-05-19T01:05:42.925Z,62.10
2018-05-19T01:10:45.499Z,61.20
2018-05-19T01:15:49.127Z,61.60
2018-05-19T01:20:52.464Z,61.30
2018-05-19T01:25:55.015Z,61.30
2018-05-19T01:30:57.568Z,61.40
2018-05-19T01:36:00.940Z,61.50
2018-05-19T01:41:03.522Z,61.60
2018-05-19T01:51:16.347Z,61.00
2018-05-19T01:56:21.548Z,60.60
2018-05-19T02:01:24.124Z,61.00
2018-05-19T02:06:27.093Z,62.10
2018-05-19T02:11:30.424Z,62.90
2018-05-19T02:16:36.353Z,63.00
2018-05-19T02:21:38.912Z,62.30
2018-05-19T02:26:41.680Z,62.00
2018-05-19T02:31:44.246Z,62.50
2018-05-19T02:36:46.822Z,62.10
2018-05-19T02:41:49.409Z,62.40
2018-05-19T02:46:52.305Z,63.20
2018-05-19T02:51:54.871Z,63.80
2018-05-19T02:56:58.166Z,64.10
2018-05-19T03:02:00.738Z,63.30
2018-05-19T03:07:11.256Z,63.50
2018-05-19T03:12:13.848Z,64.00
2018-05-19T03:17:16.448Z,64.50
2018-05-19T03:22:19.713Z,64.80
2018-05-19T03:27:22.296Z,64.80
2018-05-19T03:32:25.612Z,64.30
2018-05-19T03:37:28.200Z,64.30
2018-05-19T03:42:31.536Z,67.20
2018-05-19T03:47:34.122Z,67.20
2018-05-19T03:52:37.456Z,67.30
2018-05-19T03:57:52.396Z,67.20
2018-05-19T04:02:58.575Z,67.10
2018-05-19T04:08:01.730Z,67.50
2018-05-19T04:13:04.307Z,66.30
2018-05-19T04:18:07.655Z,66.40
2018-05-19T04:23:10.395Z,66.40
2018-05-19T04:28:13.427Z,66.60
2018-05-19T04:33:17.829Z,67.60
2018-05-19T04:38:20.408Z,67.60
2018-05-19T04:43:23.681Z,68.50
2018-05-19T04:48:27.020Z,68.10
2018-05-19T04:53:29.583Z,67.30
2018-05-19T04:58:32.199Z,67.80
2018-05-19T05:03:35.550Z,68.20
2018-05-19T05:08:40.727Z,68.20
2018-05-19T05:13:43.301Z,68.40
2018-05-19T05:18:46.027Z,68.00
2018-05-19T05:23:49.587Z,68.30
2018-05-19T05:28:52.146Z,68.60
2018-05-19T05:33:54.721Z,68.30
2018-05-19T05:38:59.490Z,67.40
2018-05-19T05:44:02.139Z,67.00
2018-05-19T05:49:05.485Z,63.20
2018-05-19T05:54:08.575Z,63.20
2018-05-19T05:59:11.904Z,61.70
2018-05-19T06:04:14.962Z,61.60
2018-05-19T06:09:17.537Z,61.90
2018-05-19T06:14:22.647Z,60.70
2018-05-19T06:19:26.891Z,59.80
2018-05-19T06:24:30.249Z,59.20
2018-05-19T06:29:33.674Z,59.20
2018-05-19T06:34:36.247Z,57.80
2018-05-19T06:39:42.162Z,58.30
2018-05-19T06:44:44.767Z,58.50
2018-05-19T06:49:47.491Z,58.70
2018-05-19T06:54:51.189Z,57.40
2018-05-19T06:59:53.767Z,57.40
2018-05-19T07:04:56.703Z,57.50
2018-05-19T07:09:59.277Z,56.60
2018-05-19T07:15:02.167Z,57.70
2018-05-19T07:20:04.765Z,57.70
2018-05-19T07:25:07.364Z,57.40
2018-05-19T07:30:10.260Z,57.50
2018-05-19T07:35:12.854Z,56.50
2018-05-19T07:40:15.776Z,56.30
2018-05-19T07:45:18.350Z,55.80
2018-05-19T07:50:21.813Z,55.60
2018-05-19T07:55:24.372Z,55.00
2018-05-19T08:00:27.580Z,54.30
2018-05-19T08:05:30.339Z,54.90
2018-05-19T08:10:33.696Z,54.00
2018-05-19T08:15:38.768Z,53.90
2018-05-19T08:20:43.942Z,54.20
2018-05-19T08:25:46.509Z,54.40
2018-05-19T08:30:50.478Z,54.60
2018-05-19T08:41:13.161Z,54.00
2018-05-19T08:46:22.416Z,54.90
2018-05-19T08:51:24.989Z,54.00
2018-05-19T08:56:28.345Z,53.30
2018-05-19T09:01:31.368Z,53.20
2018-05-19T09:06:34.786Z,52.70
2018-05-19T09:11:37.334Z,51.20
2018-05-19T09:16:40.246Z,51.70
2018-05-19T09:21:43.385Z,53.30
2018-05-19T09:26:45.947Z,53.10
2018-05-19T09:31:49.239Z,52.00
2018-05-19T09:36:51.797Z,49.60
2018-05-19T09:41:54.355Z,51.60
2018-05-19T09:47:00.318Z,51.20
2018-05-19T09:52:04.474Z,50.80
2018-05-19T09:57:07.057Z,50.70
2018-05-19T10:02:09.948Z,48.00
2018-05-19T10:07:12.503Z,48.60
2018-05-19T10:12:15.067Z,49.40
2018-05-19T10:17:17.721Z,48.80
2018-05-19T10:22:22.209Z,48.20
2018-05-19T10:27:25.001Z,48.30
2018-05-19T10:32:27.593Z,47.70
2018-05-19T10:37:32.310Z,46.50
2018-05-19T10:42:34.873Z,46.50
2018-05-19T10:47:37.908Z,46.60
2018-05-19T10:52:40.506Z,46.60
2018-05-19T10:57:43.367Z,46.40
2018-05-19T11:08:00.046Z,46.20
2018-05-19T11:13:02.965Z,45.50
2018-05-19T11:18:06.226Z,44.40
2018-05-19T11:23:09.250Z,43.30
2018-05-19T11:28:12.585Z,41.80
2018-05-19T11:33:15.164Z,41.70
2018-05-19T11:38:18.499Z,42.60
2018-05-19T11:43:21.316Z,42.60
2018-05-19T11:48:24.358Z,43.50
2018-05-19T11:53:26.956Z,41.90
2018-05-19T11:58:29.895Z,42.50
2018-05-19T12:03:33.223Z,39.80
2018-05-19T12:08:43.610Z,41.30
2018-05-19T12:13:47.802Z,41.30
2018-05-19T12:18:51.734Z,40.80
2018-05-19T12:23:57.939Z,41.10
2018-05-19T12:29:03.804Z,39.70
2018-05-19T12:34:06.385Z,39.60
2018-05-19T12:39:09.405Z,40.30
2018-05-19T12:44:12.800Z,38.90
2018-05-19T12:49:15.962Z,39.40
2018-05-19T12:54:20.047Z,39.00
2018-05-19T12:59:22.881Z,38.80
2018-05-19T13:04:26.683Z,36.80
2018-05-19T13:09:29.257Z,36.80
2018-05-19T13:14:32.392Z,37.60
2018-05-19T13:19:34.975Z,37.20
2018-05-19T13:24:37.825Z,37.80
2018-05-19T13:29:41.622Z,38.10
2018-05-19T13:34:44.224Z,38.00
2018-05-19T13:39:46.795Z,37.70
2018-05-19T13:44:49.380Z,38.10
2018-05-19T13:49:55.117Z,36.30
2018-05-19T13:54:58.475Z,37.80
2018-05-19T14:00:01.069Z,37.70
2018-05-19T14:05:03.654Z,37.00
2018-05-19T14:10:06.845Z,36.80
2018-05-19T14:15:10.256Z,38.10
2018-05-19T14:20:13.676Z,38.40
2018-05-19T14:25:18.860Z,38.40
2018-05-19T14:30:21.420Z,39.90
2018-05-19T14:35:24.443Z,40.00
2018-05-19T14:40:27.091Z,39.00
2018-05-19T14:45:30.513Z,40.50
2018-05-19T14:50:35.976Z,41.90
2018-05-19T14:55:39.782Z,44.40
2018-05-19T15:00:43.041Z,49.60
2018-05-19T15:05:46.380Z,51.80
2018-05-19T15:10:50.557Z,52.10
2018-05-19T15:15:53.677Z,52.00
2018-05-19T15:20:56.841Z,54.10
2018-05-19T15:26:00.199Z,55.50
2018-05-19T15:31:02.856Z,55.50
2018-05-19T15:36:06.423Z,55.30
2018-05-19T15:41:11.503Z,55.10
2018-05-19T15:46:15.413Z,57.30
2018-05-19T15:51:17.998Z,57.30
2018-05-19T15:56:21.379Z,59.60
2018-05-19T16:01:24.137Z,58.00
2018-05-19T16:06:26.720Z,59.00
2018-05-19T16:11:29.301Z,59.40
2018-05-19T16:16:31.852Z,58.20
2018-05-19T16:21:35.181Z,58.90
2018-05-19T16:26:38.516Z,59.70
2018-05-19T16:31:42.484Z,60.30
2018-05-19T16:36:45.655Z,60.30
2018-05-19T16:41:49.856Z,62.40
2018-05-19T16:46:53.104Z,62.40
2018-05-19T16:51:57.253Z,60.30
2018-05-19T16:57:06.629Z,58.70
2018-05-19T17:02:09.480Z,59.20
2018-05-19T17:07:12.827Z,57.50
2018-05-19T17:12:15.859Z,57.50
2018-05-19T17:17:18.431Z,56.80
2018-05-19T17:22:20.983Z,56.50
2018-05-19T17:27:23.573Z,57.10
2018-05-19T17:32:29.079Z,57.20
2018-05-19T17:37:33.059Z,57.60
2018-05-19T17:42:42.268Z,57.50
2018-05-19T17:47:46.163Z,58.10
2018-05-19T17:52:48.974Z,58.00
2018-05-19T17:57:52.318Z,57.90
2018-05-19T18:02:55.684Z,57.10
2018-05-19T18:07:58.259Z,57.00
2018-05-19T18:13:01.138Z,57.60
2018-05-19T18:18:04.967Z,57.90
2018-05-19T18:23:14.947Z,58.50
2018-05-19T18:28:17.551Z,58.50
2018-05-19T18:33:20.759Z,58.20
2018-05-19T18:38:23.346Z,57.80
2018-05-19T18:43:26.710Z,57.50
2018-05-19T18:48:30.388Z,57.50
2018-05-19T18:53:34.058Z,56.80
2018-05-19T18:58:36.622Z,56.80
2018-05-19T19:03:39.544Z,56.90
2018-05-19T19:08:42.160Z,57.40
2018-05-19T19:13:44.736Z,59.20
2018-05-19T19:18:47.555Z,58.90
2018-05-19T19:23:50.689Z,58.50
2018-05-19T19:28:54.066Z,58.40
2018-05-19T19:33:56.682Z,58.40
2018-05-19T19:39:02.604Z,58.70
2018-05-19T19:44:05.952Z,57.10
2018-05-19T19:49:08.779Z,57.10
2018-05-19T19:54:11.880Z,56.50
2018-05-19T19:59:15.084Z,56.30
2018-05-19T20:04:18.985Z,55.90
2018-05-19T20:09:22.329Z,55.90
2018-05-19T20:14:39.626Z,55.80
2018-05-19T20:19:42.211Z,55.70
2018-05-19T20:24:44.771Z,56.20
2018-05-19T20:29:47.394Z,56.80
2018-05-19T20:34:49.962Z,57.20
2018-05-19T20:39:52.536Z,57.60
2018-05-19T20:44:56.535Z,58.50
2018-05-19T20:49:59.566Z,58.40
2018-05-19T20:55:03.176Z,58.50
2018-05-19T21:00:06.200Z,58.50
2018-05-19T21:05:16.364Z,58.50
2018-05-19T21:10:21.071Z,58.40
2018-05-19T21:15:23.806Z,58.90
2018-05-19T21:20:26.822Z,59.10
2018-05-19T21:25:29.422Z,60.70
2018-05-19T21:30:31.998Z,59.10
2018-05-19T21:35:34.564Z,58.90
2018-05-19T21:40:37.128Z,59.60
2018-05-19T21:45:42.346Z,61.50
2018-05-19T21:50:45.549Z,61.50
2018-05-19T21:55:50.627Z,61.00
2018-05-19T22:00:53.185Z,59.90
2018-05-19T22:05:59.329Z,59.80
2018-05-19T22:11:02.655Z,60.20
2018-05-19T22:21:17.819Z,60.30
2018-05-19T22:26:20.403Z,61.00
2018-05-19T22:31:22.984Z,61.20
2018-05-19T22:36:26.308Z,61.20
2018-05-19T22:41:30.804Z,61.20
2018-05-19T22:46:33.356Z,60.80
2018-05-19T22:51:35.914Z,60.20
2018-05-19T22:56:39.278Z,59.70
2018-05-19T23:01:41.833Z,59.60
2018-05-19T23:06:45.711Z,60.20
2018-05-19T23:11:48.575Z,60.10
2018-05-19T23:16:52.214Z,60.30
2018-05-19T23:21:55.025Z,60.30
2018-05-19T23:27:04.562Z,60.30
2018-05-19T23:32:07.896Z,60.20
2018-05-19T23:37:10.876Z,60.10
2018-05-19T23:42:17.404Z,61.20
2018-05-19T23:47:19.972Z,60.40
2018-05-19T23:52:23.300Z,60.50
2018-05-19T23:57:27.230Z,60.40
